Time;durP1;ratioP1;P1;durP2;ratioP2;P2;SDS_P1;SDS_P2;PMS_P1;PMS_P2;Temp;Humidity;BMP_temperature;BMP_pressure;BME280_temperature;BME280_humidity;BME280_pressure;Samples;Min_cycle;Max_cycle;Signal;HPM_P1;HPM_P2
2023/03/25 00:02:15;;;;;;;1.10;1.10;;;;;;;18.75;50.68;96755.13;5017574;28;20201;-90
2023/03/25 00:04:42;;;;;;;1.10;1.10;;;;;;;19.19;50.78;96828.47;5001952;28;20210;-89
2023/03/25 00:07:08;;;;;;;0.93;0.93;;;;;;;19.00;50.86;96795.69;5035590;28;20206;-90
2023/03/25 00:09:35;;;;;;;1.10;1.10;;;;;;;18.94;50.87;96772.63;5021464;28;20308;-90
2023/03/25 00:12:01;;;;;;;1.20;1.20;;;;;;;18.98;50.48;96779.50;5034487;28;20216;-89
2023/03/25 00:14:28;;;;;;;0.93;0.93;;;;;;;19.15;50.59;96808.84;5001884;28;20208;-90
2023/03/25 00:16:55;;;;;;;1.00;1.00;;;;;;;18.90;50.81;96767.41;5014679;28;20213;-90
2023/03/25 00:19:21;;;;;;;1.30;1.20;;;;;;;19.34;50.88;96854.44;5040089;28;20224;-91
2023/03/25 00:21:51;;;;;;;1.00;1.00;;;;;;;18.85;50.49;96764.72;5005783;28;20236;-90
2023/03/25 00:24:17;;;;;;;0.93;0.93;;;;;;;19.17;50.61;96829.28;4997979;28;20236;-90
2023/03/25 00:26:45;;;;;;;1.00;1.00;;;;;;;18.62;50.62;96730.13;5000665;28;20699;-90
2023/03/25 00:29:12;;;;;;;1.00;1.00;;;;;;;18.97;50.62;96787.09;5004822;28;20239;-90
2023/03/25 00:31:39;;;;;;;1.10;1.10;;;;;;;19.13;50.53;96799.47;5031538;28;20210;-90
2023/03/25 00:34:06;;;;;;;1.00;1.00;;;;;;;19.52;50.69;96880.41;5004875;28;20662;-90
2023/03/25 00:36:36;;;;;;;1.00;1.00;;;;;;;18.95;50.78;96794.69;5037472;28;20201;-87
2023/03/25 00:39:03;;;;;;;1.33;1.23;;;;;;;18.78;50.46;96756.88;5020862;28;20212;-90
2023/03/25 00:41:30;;;;;;;1.20;1.20;;;;;;;19.11;50.97;96819.78;5001386;28;20206;-90
2023/03/25 00:43:57;;;;;;;1.10;1.10;;;;;;;18.94;50.37;96779.38;5020289;28;20287;-90
2023/03/25 00:46:26;;;;;;;1.07;1.07;;;;;;;18.80;50.50;96761.19;5000542;28;20199;-90
2023/03/25 00:48:53;;;;;;;1.00;1.00;;;;;;;19.52;50.54;96885.50;5029923;28;20315;-90
2023/03/25 00:51:20;;;;;;;0.90;0.90;;;;;;;19.14;50.57;96816.44;5027310;28;20212;-90
2023/03/25 00:53:52;;;;;;;1.00;1.00;;;;;;;19.01;50.38;96779.59;5004602;28;20208;-90
2023/03/25 00:56:21;;;;;;;0.90;0.90;;;;;;;19.07;50.62;96787.41;5018482;28;20259;-90
2023/03/25 00:58:48;;;;;;;1.00;1.00;;;;;;;18.95;50.48;96753.97;5002380;28;20198;-90
2023/03/25 01:01:16;;;;;;;0.90;0.90;;;;;;;18.24;50.68;96627.28;5001458;28;20209;-90
2023/03/25 01:03:43;;;;;;;1.03;1.03;;;;;;;18.94;50.46;96746.28;5020105;28;20259;-89
2023/03/25 01:06:11;;;;;;;1.00;1.00;;;;;;;18.53;50.58;96668.81;5017075;28;20677;-90
2023/03/25 01:08:38;;;;;;;1.20;1.10;;;;;;;18.89;50.53;96745.31;5019268;28;20201;-89
2023/03/25 01:11:05;;;;;;;1.00;1.00;;;;;;;19.14;50.35;96789.31;5012218;28;20357;-90
2023/03/25 01:13:32;;;;;;;1.10;1.10;;;;;;;18.95;50.61;96750.59;4997645;28;20583;-90
2023/03/25 01:15:58;;;;;;;1.10;1.00;;;;;;;19.18;50.25;96777.50;4995058;28;20206;-89
2023/03/25 01:18:25;;;;;;;0.90;0.90;;;;;;;18.93;50.26;96740.34;5012630;28;20208;-90
2023/03/25 01:20:51;;;;;;;1.00;1.00;;;;;;;18.82;50.44;96723.91;5009208;28;20225;-89
2023/03/25 01:23:18;;;;;;;0.90;0.90;;;;;;;19.28;50.74;96817.72;5012969;28;20197;-90
2023/03/25 01:25:44;;;;;;;1.00;1.00;;;;;;;19.11;50.68;96770.53;5009888;28;20301;-90
2023/03/25 01:28:11;;;;;;;0.90;0.90;;;;;;;18.98;50.93;96755.75;5011620;28;20225;-90
2023/03/25 01:30:37;;;;;;;1.00;1.00;;;;;;;19.15;50.58;96778.28;5010579;28;20335;-90
2023/03/25 01:33:04;;;;;;;1.10;1.10;;;;;;;18.91;50.61;96743.66;5013010;28;20552;-90
2023/03/25 01:35:30;;;;;;;1.00;1.00;;;;;;;18.89;51.01;96724.97;5013275;28;20229;-89
2023/03/25 01:37:57;;;;;;;0.90;0.90;;;;;;;18.94;50.38;96728.47;5030555;28;20217;-89
2023/03/25 01:40:24;;;;;;;1.00;1.00;;;;;;;18.67;50.28;96681.91;4993813;28;20218;-90
2023/03/25 01:42:50;;;;;;;1.00;1.00;;;;;;;19.05;50.69;96743.22;5029221;28;20217;-90
2023/03/25 01:45:28;;;;;;;0.97;0.97;;;;;;;18.92;50.41;96715.69;4996179;28;20206;-90
2023/03/25 01:48:16;;;;;;;0.90;0.90;;;;;;;19.29;50.58;96782.09;5013386;28;20579;-89
2023/03/25 01:50:46;;;;;;;0.90;0.90;;;;;;;18.93;50.51;96724.22;4994914;28;20230;-90
2023/03/25 01:53:12;;;;;;;1.00;1.00;;;;;;;19.33;50.70;96794.09;5008028;28;20672;-91
2023/03/25 01:55:39;;;;;;;1.17;1.10;;;;;;;18.99;50.69;96737.97;5017252;28;20202;-90
2023/03/25 01:58:09;;;;;;;0.90;0.90;;;;;;;19.13;50.48;96753.63;5033321;28;20653;-90
2023/03/25 02:00:38;;;;;;;1.00;1.00;;;;;;;18.57;50.71;96652.84;4995190;28;20218;-90
2023/03/25 02:03:04;;;;;;;0.90;0.90;;;;;;;19.03;50.47;96736.34;4999837;28;20201;-90
2023/03/25 02:05:44;;;;;;;1.03;1.00;;;;;;;18.99;50.61;96732.88;4996776;28;20205;-90
2023/03/25 02:08:10;;;;;;;1.03;1.03;;;;;;;18.31;50.73;96600.34;5011086;28;20214;-90
2023/03/25 02:10:37;;;;;;;1.00;1.00;;;;;;;19.50;49.91;96805.59;5016771;28;20710;-89
2023/03/25 02:13:04;;;;;;;1.20;1.10;;;;;;;19.10;50.61;96738.25;5032828;28;20267;-90
2023/03/25 02:15:38;;;;;;;0.90;0.90;;;;;;;18.82;50.57;96708.66;4997187;28;20682;-90
2023/03/25 02:18:13;;;;;;;0.80;0.80;;;;;;;19.26;50.56;96765.84;5027926;28;20686;-90
2023/03/25 02:21:02;;;;;;;1.13;1.10;;;;;;;19.50;50.44;96810.69;5012158;28;20225;-90
2023/03/25 02:23:47;;;;;;;0.80;0.80;;;;;;;19.51;50.62;96816.66;5037969;28;20240;-90
2023/03/25 02:26:58;;;;;;;0.80;0.80;;;;;;;19.51;50.65;96825.16;5032560;28;20586;-90
2023/03/25 02:29:25;;;;;;;1.20;1.20;;;;;;;19.51;50.49;96832.78;5020488;28;20311;-90
2023/03/25 02:32:06;;;;;;;0.97;0.97;;;;;;;18.57;50.49;96670.66;5033673;28;20210;-91
2023/03/25 02:34:40;;;;;;;1.30;1.20;;;;;;;19.07;50.73;96750.91;5023173;28;20206;-90
2023/03/25 02:37:22;;;;;;;1.00;1.00;;;;;;;19.51;50.53;96831.94;5030158;28;20228;-90
2023/03/25 02:39:52;;;;;;;1.00;1.00;;;;;;;19.26;50.52;96799.81;5032665;28;20221;-90
2023/03/25 02:42:41;;;;;;;0.97;0.97;;;;;;;19.50;50.44;96831.09;5016147;28;20572;-90
2023/03/25 02:45:10;;;;;;;1.00;1.00;;;;;;;19.50;50.51;96836.19;5033560;28;20289;-90
2023/03/25 02:47:41;;;;;;;1.00;1.00;;;;;;;19.38;50.38;96832.44;5032290;28;20664;-89
2023/03/25 02:50:48;;;;;;;1.00;1.00;;;;;;;18.99;50.55;96753.25;5000045;28;20236;-90
2023/03/25 02:53:18;;;;;;;1.00;1.00;;;;;;;19.38;50.61;96806.94;4989242;28;20206;-89
2023/03/25 02:55:46;;;;;;;0.93;0.93;;;;;;;18.62;49.98;96681.78;5016327;28;20236;-90
2023/03/25 02:58:15;;;;;;;0.93;0.93;;;;;;;19.12;50.69;96772.25;5000211;28;20573;-90
2023/03/25 03:00:42;;;;;;;1.00;1.00;;;;;;;18.90;50.60;96740.28;5015613;28;20221;-90
2023/03/25 03:03:09;;;;;;;1.10;1.10;;;;;;;19.19;50.27;96780.09;5015590;28;20676;-89
2023/03/25 03:05:42;;;;;;;0.77;0.77;;;;;;;18.82;50.46;96707.78;4996394;28;20210;-91
2023/03/25 03:08:25;;;;;;;1.00;1.00;;;;;;;19.51;50.62;96826.84;5010994;28;20691;-90
2023/03/25 03:10:57;;;;;;;1.13;1.10;;;;;;;19.51;50.61;96824.31;5032943;28;20235;-90
2023/03/25 03:13:40;;;;;;;1.00;1.00;;;;;;;18.99;50.47;96732.00;5031843;28;20220;-90
2023/03/25 03:16:23;;;;;;;1.33;1.23;;;;;;;19.50;50.61;96817.47;5031803;28;20205;-90
2023/03/25 03:18:56;;;;;;;1.20;1.10;;;;;;;18.92;50.61;96712.31;5025591;28;20206;-90
2023/03/25 03:21:37;;;;;;;1.20;1.20;;;;;;;18.77;50.50;96689.84;5031081;28;20716;-90
2023/03/25 03:24:11;;;;;;;1.43;1.07;;;;;;;18.88;50.63;96705.38;5016960;28;20209;-89
2023/03/25 03:26:45;;;;;;;1.00;1.00;;;;;;;19.49;50.61;96819.16;5015611;28;20216;-90
2023/03/25 03:29:31;;;;;;;1.10;1.10;;;;;;;19.50;50.62;96825.09;5031542;28;20600;-90
2023/03/25 03:32:10;;;;;;;1.00;1.00;;;;;;;18.90;50.55;96745.38;5014888;28;20661;-90
2023/03/25 03:34:43;;;;;;;0.90;0.90;;;;;;;18.92;50.45;96718.25;5022841;28;20271;-90
2023/03/25 03:37:25;;;;;;;0.83;0.83;;;;;;;18.91;50.51;96720.75;5014976;28;20201;-90
2023/03/25 03:39:51;;;;;;;1.00;1.00;;;;;;;18.50;50.50;96650.09;4997024;28;20332;-90
2023/03/25 03:42:22;;;;;;;1.20;1.10;;;;;;;19.13;50.53;96762.09;5006826;28;20205;-90
2023/03/25 03:44:51;;;;;;;0.90;0.90;;;;;;;19.11;50.47;96778.16;5015487;28;20209;-90
2023/03/25 03:47:26;;;;;;;1.00;1.00;;;;;;;18.10;50.16;96602.31;4998710;28;20683;-90
2023/03/25 03:50:03;;;;;;;0.90;0.90;;;;;;;19.50;50.43;96835.31;4999138;28;20251;-90
2023/03/25 03:52:32;;;;;;;0.90;0.90;;;;;;;19.36;50.49;96803.53;4999287;28;20292;-90
2023/03/25 03:55:20;;;;;;;1.00;1.00;;;;;;;19.49;50.50;96824.25;5015143;28;20209;-89
2023/03/25 03:57:50;;;;;;;1.13;1.13;;;;;;;18.33;50.37;96625.81;5014804;28;20665;-90
2023/03/25 04:00:18;;;;;;;0.93;0.93;;;;;;;18.68;50.49;96691.28;5015040;28;20248;-90
2023/03/25 04:02:49;;;;;;;1.00;1.00;;;;;;;18.85;50.79;96718.91;4998215;28;20251;-90
2023/03/25 04:05:17;;;;;;;1.00;1.00;;;;;;;19.28;50.60;96798.22;4997055;28;20217;-89
2023/03/25 04:07:53;;;;;;;1.00;1.00;;;;;;;18.97;50.36;96757.44;5030888;28;20245;-90
2023/03/25 04:10:44;;;;;;;1.20;1.10;;;;;;;19.09;50.46;96774.72;5015050;28;20320;-90
2023/03/25 04:13:12;;;;;;;0.80;0.80;;;;;;;19.10;50.58;96787.47;5011392;28;20206;-90
2023/03/25 04:15:39;;;;;;;1.23;1.10;;;;;;;19.01;50.31;96764.31;4995374;28;20210;-90
2023/03/25 04:18:07;;;;;;;1.60;0.90;;;;;;;18.65;50.14;96701.38;5004182;28;20292;-87
2023/03/25 04:20:35;;;;;;;0.90;0.90;;;;;;;19.23;50.56;96791.22;5014315;28;20222;-90
2023/03/25 04:23:03;;;;;;;1.00;1.00;;;;;;;18.74;50.52;96716.91;4994987;28;20237;-90
2023/03/25 04:25:31;;;;;;;1.27;1.17;;;;;;;19.22;50.77;96787.81;5007459;28;20301;-90
2023/03/25 04:27:58;;;;;;;1.10;1.00;;;;;;;19.00;50.41;96751.53;4994958;28;20206;-89
2023/03/25 04:30:26;;;;;;;1.20;1.10;;;;;;;18.29;50.23;96629.94;5021084;28;20222;-90
2023/03/25 04:32:53;;;;;;;0.90;0.90;;;;;;;19.30;50.91;96806.75;4994575;28;20210;-90
2023/03/25 04:35:19;;;;;;;1.00;1.00;;;;;;;19.08;50.43;96766.22;5020585;28;20229;-90
2023/03/25 04:37:47;;;;;;;1.00;1.00;;;;;;;18.88;50.39;96728.31;4994538;28;20289;-90
2023/03/25 04:40:18;;;;;;;0.90;0.90;;;;;;;19.34;50.58;96807.72;5003515;28;20600;-91
2023/03/25 04:42:45;;;;;;;1.13;1.13;;;;;;;19.12;50.40;96769.69;4995316;28;20230;-90
2023/03/25 04:45:15;;;;;;;0.80;0.80;;;;;;;18.51;50.51;96672.16;5011086;28;20206;-90
2023/03/25 04:47:45;;;;;;;0.90;0.90;;;;;;;19.01;50.53;96761.78;4987866;28;20213;-90
2023/03/25 04:50:23;;;;;;;1.20;1.10;;;;;;;18.89;50.54;96738.53;5007990;28;20701;-90
2023/03/25 04:52:50;;;;;;;1.00;1.00;;;;;;;19.11;50.31;96789.22;5008539;28;20206;-90
2023/03/25 04:55:18;;;;;;;0.90;0.90;;;;;;;19.27;50.70;96819.41;4995178;28;20696;-90
2023/03/25 04:57:49;;;;;;;0.97;0.97;;;;;;;18.88;50.38;96746.13;4994604;28;20741;-90
2023/03/25 05:00:18;;;;;;;0.90;0.90;;;;;;;19.23;50.33;96819.25;4995145;28;20226;-90
2023/03/25 05:02:49;;;;;;;0.80;0.80;;;;;;;19.52;50.50;96851.50;4997241;28;20283;-89
2023/03/25 05:05:17;;;;;;;1.00;1.00;;;;;;;18.90;50.39;96754.69;4995046;28;20265;-89
2023/03/25 05:07:48;;;;;;;1.00;1.00;;;;;;;19.28;50.47;96826.25;5030078;28;20197;-89
2023/03/25 05:10:19;;;;;;;1.10;1.10;;;;;;;19.02;50.29;96773.69;5029837;28;20254;-89
2023/03/25 05:12:46;;;;;;;0.97;0.97;;;;;;;18.55;50.19;96687.53;5013254;28;20316;-90
2023/03/25 05:15:12;;;;;;;1.20;1.20;;;;;;;19.32;50.54;96822.94;5030083;28;20206;-90
2023/03/25 05:17:39;;;;;;;1.00;1.00;;;;;;;18.70;50.33;96708.31;4994510;28;20305;-89
2023/03/25 05:20:10;;;;;;;0.90;0.90;;;;;;;19.12;50.48;96790.06;5013618;28;20250;-90
2023/03/25 05:22:37;;;;;;;1.33;1.23;;;;;;;19.08;50.52;96790.81;5014036;28;20206;-91
2023/03/25 05:25:05;;;;;;;0.90;0.90;;;;;;;19.27;50.36;96821.94;5029896;28;20205;-90
2023/03/25 05:27:32;;;;;;;0.70;0.70;;;;;;;18.49;50.46;96684.81;5029513;28;20767;-90
2023/03/25 05:29:59;;;;;;;0.80;0.80;;;;;;;18.75;50.38;96723.72;4994029;28;20321;-89
2023/03/25 05:32:28;;;;;;;1.00;1.00;;;;;;;18.74;50.57;96727.09;5013118;28;20202;-90
2023/03/25 05:34:55;;;;;;;0.90;0.90;;;;;;;19.13;50.47;96809.66;4994691;28;20485;-91
2023/03/25 05:37:22;;;;;;;0.87;0.87;;;;;;;18.91;50.69;96761.47;5028551;28;20583;-90
2023/03/25 05:39:50;;;;;;;0.90;0.90;;;;;;;18.93;50.67;96765.81;5013328;28;20663;-90
2023/03/25 05:42:21;;;;;;;0.73;0.73;;;;;;;18.91;50.54;96772.53;4997029;28;20729;-90
2023/03/25 05:44:52;;;;;;;0.80;0.80;;;;;;;18.87;50.40;96760.56;4995058;28;20673;-90
2023/03/25 05:47:20;;;;;;;0.97;0.97;;;;;;;19.11;50.27;96813.81;5005765;28;20217;-91
2023/03/25 05:49:48;;;;;;;0.80;0.80;;;;;;;19.49;50.63;96882.88;5010184;28;20280;-90
2023/03/25 05:52:18;;;;;;;1.10;1.10;;;;;;;18.62;50.46;96739.47;5026187;28;20296;-90
2023/03/25 05:54:45;;;;;;;1.00;1.00;;;;;;;19.17;50.48;96835.25;5030125;28;20209;-90
2023/03/25 05:57:12;;;;;;;0.90;0.90;;;;;;;18.93;50.61;96800.59;4994010;28;20284;-88
2023/03/25 05:59:39;;;;;;;0.90;0.90;;;;;;;18.69;50.46;96746.44;5013384;28;20225;-90
2023/03/25 06:02:07;;;;;;;0.97;0.97;;;;;;;19.11;50.31;96819.78;5012890;28;20202;-88
2023/03/25 06:04:36;;;;;;;0.90;0.90;;;;;;;18.78;50.49;96788.31;4997034;28;20210;-90
2023/03/25 06:07:12;;;;;;;1.10;1.10;;;;;;;19.13;50.42;96848.69;5029605;28;20579;-90
2023/03/25 06:09:45;;;;;;;1.00;1.00;;;;;;;19.49;50.53;96903.25;4998452;28;20260;-90
2023/03/25 06:12:16;;;;;;;1.00;1.00;;;;;;;18.78;50.42;96782.34;5009882;28;20245;-90
2023/03/25 06:14:44;;;;;;;1.17;1.10;;;;;;;19.10;50.59;96903.78;5029458;28;20285;-90
2023/03/25 06:17:14;;;;;;;0.90;0.90;;;;;;;18.92;50.39;96824.31;5009911;28;20211;-90
2023/03/25 06:19:41;;;;;;;1.10;1.00;;;;;;;18.78;50.29;96795.06;5012858;28;20237;-90
2023/03/25 06:22:08;;;;;;;1.13;1.00;;;;;;;18.80;50.52;96813.78;4993075;28;20198;-90
2023/03/25 06:24:38;;;;;;;0.90;0.90;;;;;;;18.85;50.48;96824.94;4996340;28;20284;-90
2023/03/25 06:27:08;;;;;;;1.00;1.00;;;;;;;18.96;50.45;96849.03;5029215;28;20292;-90
2023/03/25 06:29:36;;;;;;;1.00;1.00;;;;;;;19.10;50.59;96868.13;5029145;28;20237;-90
2023/03/25 06:32:03;;;;;;;0.90;0.90;;;;;;;18.92;50.30;96829.41;4996411;28;20654;-91
2023/03/25 06:34:31;;;;;;;0.80;0.80;;;;;;;18.79;50.42;96819.69;4996962;28;20387;-90
2023/03/25 06:36:59;;;;;;;1.00;1.00;;;;;;;18.51;50.36;96768.81;5014882;28;20210;-90
2023/03/25 06:39:32;;;;;;;1.00;1.00;;;;;;;18.78;50.52;96802.69;5016605;28;20700;-90
2023/03/25 06:41:59;;;;;;;1.30;1.20;;;;;;;18.94;50.56;96832.84;5032413;28;20244;-88
2023/03/25 06:44:26;;;;;;;0.90;0.90;;;;;;;19.33;50.46;96893.44;5000136;28;20205;-90
2023/03/25 06:46:53;;;;;;;1.00;1.00;;;;;;;18.59;50.55;96793.66;5012816;28;20240;-90
2023/03/25 06:49:19;;;;;;;0.93;0.93;;;;;;;18.71;50.30;96813.53;5010945;28;20770;-90
2023/03/25 06:51:46;;;;;;;0.80;0.80;;;;;;;18.89;50.38;96842.91;4998941;28;20225;-91
2023/03/25 06:54:13;;;;;;;1.10;1.10;;;;;;;18.99;49.99;96870.38;4999770;28;20248;-87
2023/03/25 06:56:40;;;;;;;0.87;0.87;;;;;;;18.78;50.54;96831.56;5000056;28;20295;-90
2023/03/25 06:59:07;;;;;;;0.90;0.90;;;;;;;19.04;50.51;96885.78;5016224;28;20637;-90
2023/03/25 07:01:33;;;;;;;1.00;1.00;;;;;;;19.24;50.58;96912.66;4998682;28;20226;-90
2023/03/25 07:04:00;;;;;;;0.90;0.90;;;;;;;18.08;50.12;96719.22;5015521;28;20205;-89
2023/03/25 07:06:26;;;;;;;1.07;0.97;;;;;;;17.75;50.25;96679.19;5015871;28;20297;-90
2023/03/25 07:08:53;;;;;;;1.00;1.00;;;;;;;19.30;50.73;96928.19;5015851;28;20236;-90
2023/03/25 07:11:24;;;;;;;0.90;0.90;;;;;;;18.49;50.49;96778.09;5012566;28;20222;-91
2023/03/25 07:13:52;;;;;;;0.90;0.90;;;;;;;18.59;50.28;96796.22;4996598;28;20210;-90
2023/03/25 07:16:20;;;;;;;0.90;0.90;;;;;;;18.86;50.41;96830.09;5023682;28;20201;-90
2023/03/25 07:18:47;;;;;;;0.97;0.97;;;;;;;18.96;50.44;96855.00;4999288;28;20198;-90
2023/03/25 07:21:14;;;;;;;0.90;0.90;;;;;;;19.11;50.33;96877.50;4999739;28;20285;-90
2023/03/25 07:23:40;;;;;;;1.00;1.00;;;;;;;19.18;50.83;96893.00;4999175;28;20229;-91
2023/03/25 07:26:07;;;;;;;0.93;0.93;;;;;;;18.70;50.50;96816.88;5019013;28;20684;-90
2023/03/25 07:28:34;;;;;;;0.87;0.87;;;;;;;19.11;50.45;96882.59;4999035;28;20210;-90
2023/03/25 07:31:00;;;;;;;0.80;0.80;;;;;;;18.57;50.02;96795.31;5015402;28;20279;-90
2023/03/25 07:33:27;;;;;;;0.90;0.90;;;;;;;18.27;50.22;96742.63;5017915;28;20249;-90
2023/03/25 07:35:54;;;;;;;0.80;0.80;;;;;;;18.51;50.28;96795.16;5032077;28;20212;-90
2023/03/25 07:38:21;;;;;;;0.90;0.90;;;;;;;19.49;50.87;96950.81;4998923;28;20244;-90
2023/03/25 07:40:47;;;;;;;0.90;0.90;;;;;;;18.71;50.34;96827.09;5015092;28;20275;-88
2023/03/25 07:43:15;;;;;;;1.00;0.90;;;;;;;18.94;50.37;96863.41;5015642;28;20237;-90
2023/03/25 07:45:42;;;;;;;1.00;1.00;;;;;;;18.62;50.70;96809.03;5015042;28;20293;-90
2023/03/25 07:48:21;;;;;;;0.90;0.90;;;;;;;19.49;50.23;96966.97;5016932;28;20661;-89
2023/03/25 07:50:49;;;;;;;0.83;0.83;;;;;;;17.84;50.48;96682.88;5031170;28;20280;-88
2023/03/25 07:53:16;;;;;;;0.90;0.90;;;;;;;19.48;50.31;96949.09;5015321;28;20208;-89
2023/03/25 07:55:44;;;;;;;0.77;0.77;;;;;;;19.48;50.39;96965.22;5031283;28;20267;-90
2023/03/25 07:58:11;;;;;;;0.70;0.70;;;;;;;18.91;50.43;96870.94;5031457;28;20297;-90
2023/03/25 08:00:38;;;;;;;0.80;0.80;;;;;;;19.09;50.42;96915.66;4997693;28;20518;-90
2023/03/25 08:03:05;;;;;;;0.80;0.80;;;;;;;18.95;50.36;96867.69;5011825;28;20198;-90
2023/03/25 08:05:32;;;;;;;0.80;0.80;;;;;;;18.08;50.26;96729.38;5000085;28;20738;-90
2023/03/25 08:07:59;;;;;;;0.80;0.80;;;;;;;18.79;50.98;96828.19;5014691;28;20220;-91
2023/03/25 08:10:25;;;;;;;1.10;1.10;;;;;;;19.29;50.47;96929.00;5014522;28;20225;-91
2023/03/25 08:12:52;;;;;;;0.90;0.90;;;;;;;19.10;50.45;96884.25;4997988;28;20623;-90
2023/03/25 08:15:23;;;;;;;0.87;0.87;;;;;;;18.44;50.52;96774.56;5015026;28;20293;-90
2023/03/25 08:17:51;;;;;;;0.90;0.90;;;;;;;19.06;50.38;96890.09;5011164;28;20193;-91
2023/03/25 08:20:17;;;;;;;0.90;0.90;;;;;;;19.21;50.04;96915.13;5058388;22;20252;-84
2023/03/25 08:22:44;;;;;;;0.90;0.90;;;;;;;18.77;50.28;96839.16;5018612;28;20216;-84
2023/03/25 08:25:11;;;;;;;1.07;1.07;;;;;;;17.89;50.40;96683.88;5019256;28;20201;-84
2023/03/25 08:27:37;;;;;;;1.07;1.00;;;;;;;19.35;50.39;96924.94;5018894;28;20313;-84
2023/03/25 08:30:04;;;;;;;0.80;0.80;;;;;;;19.14;50.32;96895.41;5028091;28;20222;-84
2023/03/25 08:32:31;;;;;;;0.87;0.87;;;;;;;19.51;50.71;96962.75;5018333;28;20250;-84
2023/03/25 08:34:58;;;;;;;0.90;0.90;;;;;;;19.50;50.46;96955.94;5016181;28;20210;-85
2023/03/25 08:37:24;;;;;;;0.83;0.83;;;;;;;19.50;50.35;96963.59;5016533;28;20262;-84
2023/03/25 08:39:54;;;;;;;1.00;1.00;;;;;;;19.20;50.34;96906.66;5017841;28;20218;-84
2023/03/25 08:42:21;;;;;;;0.80;0.80;;;;;;;19.52;50.27;96966.19;5003324;28;20566;-84
2023/03/25 08:44:47;;;;;;;1.10;1.00;;;;;;;18.63;50.47;96815.84;5015572;28;20206;-84
2023/03/25 08:47:14;;;;;;;1.00;1.00;;;;;;;18.64;50.30;96812.47;4981443;28;20297;-84
2023/03/25 08:49:41;;;;;;;0.90;0.90;;;;;;;19.04;50.53;96878.16;4998647;28;20313;-84
2023/03/25 08:52:09;;;;;;;1.00;1.00;;;;;;;18.57;50.10;96794.44;4998936;28;20290;-84
2023/03/25 08:54:35;;;;;;;1.00;1.00;;;;;;;17.72;50.45;96652.03;5015119;28;20202;-84
2023/03/25 08:57:02;;;;;;;1.00;1.00;;;;;;;19.51;50.57;96954.28;4998409;28;20226;-84
2023/03/25 08:59:28;;;;;;;1.00;1.00;;;;;;;16.96;50.44;96512.50;5014171;28;20222;-84
2023/03/25 09:01:55;;;;;;;0.90;0.90;;;;;;;18.46;50.10;96765.28;5005420;28;20268;-84
2023/03/25 09:04:24;;;;;;;0.80;0.80;;;;;;;17.29;50.31;96570.22;5015069;28;20580;-84
2023/03/25 09:06:51;;;;;;;0.90;0.90;;;;;;;18.54;50.33;96779.09;4979768;28;20261;-84
2023/03/25 09:09:38;;;;;;;1.10;1.10;;;;;;;19.16;50.28;96886.13;5015155;28;20222;-84
2023/03/25 09:12:05;;;;;;;0.90;0.90;;;;;;;18.89;50.33;96831.88;4999458;28;20276;-84
2023/03/25 09:14:31;;;;;;;0.80;0.80;;;;;;;18.26;50.51;96731.59;4999097;28;20210;-84
2023/03/25 09:16:58;;;;;;;0.90;0.90;;;;;;;17.49;50.27;96602.19;5015211;28;20202;-83
2023/03/25 09:19:25;;;;;;;0.80;0.80;;;;;;;19.51;50.37;96941.53;5004759;28;20230;-84
2023/03/25 09:21:51;;;;;;;1.00;1.00;;;;;;;19.25;50.38;96901.69;5014532;28;20264;-84
2023/03/25 09:24:18;;;;;;;0.90;0.90;;;;;;;19.25;50.17;96909.31;4999203;28;20213;-84
2023/03/25 09:26:44;;;;;;;0.90;0.90;;;;;;;19.05;50.43;96867.13;4998675;28;20645;-84
2023/03/25 09:29:11;;;;;;;0.83;0.83;;;;;;;18.97;50.29;96861.81;4998766;28;20688;-84
2023/03/25 09:31:38;;;;;;;1.00;1.00;;;;;;;19.21;50.34;96893.06;5019351;28;20222;-84
2023/03/25 09:34:05;;;;;;;0.80;0.80;;;;;;;17.57;50.22;96613.44;5005000;28;20663;-84
2023/03/25 09:36:31;;;;;;;1.00;1.00;;;;;;;19.52;50.35;96948.34;4998914;28;20632;-84
2023/03/25 09:38:58;;;;;;;1.20;1.10;;;;;;;18.28;50.27;96729.97;4998328;28;20206;-83
2023/03/25 09:42:02;;;;;;;0.83;0.83;;;;;;;19.51;50.44;96947.47;5014274;28;20245;-83
2023/03/25 09:45:04;;;;;;;0.90;0.90;;;;;;;19.51;50.34;96946.63;5013048;28;20240;-84
2023/03/25 09:47:38;;;;;;;0.93;0.93;;;;;;;18.23;50.35;96723.88;5013314;28;20229;-84
2023/03/25 09:50:09;;;;;;;0.90;0.90;;;;;;;19.51;50.23;96950.03;4978643;28;20693;-84
2023/03/25 09:52:43;;;;;;;0.80;0.80;;;;;;;19.51;50.04;96949.19;4999035;28;20236;-84
2023/03/25 09:55:11;;;;;;;1.07;1.07;;;;;;;18.06;50.31;96697.13;4982882;28;20206;-84
2023/03/25 09:57:45;;;;;;;0.90;0.90;;;;;;;18.18;50.28;96715.28;4998080;28;20206;-84
2023/03/25 10:00:21;;;;;;;1.20;1.10;;;;;;;19.50;50.38;96930.47;5016409;28;20226;-84
2023/03/25 10:02:56;;;;;;;0.97;0.97;;;;;;;19.51;50.23;96936.44;4982952;28;20205;-84
2023/03/25 10:05:44;;;;;;;0.90;0.90;;;;;;;19.50;50.27;96916.84;4982554;28;20269;-84
2023/03/25 10:08:21;;;;;;;0.80;0.80;;;;;;;19.50;50.27;96921.94;5010937;28;20210;-84
2023/03/25 10:11:17;;;;;;;0.80;0.80;;;;;;;19.12;50.32;96849.53;5016532;28;20264;-84
2023/03/25 10:13:53;;;;;;;1.00;1.00;;;;;;;19.50;50.46;96909.19;4986614;28;20230;-84
2023/03/25 10:16:28;;;;;;;0.93;0.93;;;;;;;19.49;50.34;96910.91;5002726;28;20232;-84
2023/03/25 10:19:30;;;;;;;0.87;0.87;;;;;;;17.71;50.17;96602.00;4994139;28;20212;-84
2023/03/25 10:22:04;;;;;;;0.90;0.90;;;;;;;19.21;50.35;96859.97;4971425;28;20565;-84
2023/03/25 10:25:04;;;;;;;0.90;0.90;;;;;;;19.49;50.25;96903.25;5017711;28;20296;-84
2023/03/25 10:27:40;;;;;;;0.80;0.80;;;;;;;19.20;50.10;96855.69;5014962;28;20210;-84
2023/03/25 10:30:12;;;;;;;1.03;1.03;;;;;;;19.49;50.28;96890.53;5001937;28;20224;-84
2023/03/25 10:32:50;;;;;;;0.90;0.90;;;;;;;18.45;50.32;96712.69;5019304;28;20222;-84
2023/03/25 10:35:31;;;;;;;0.90;0.90;;;;;;;19.48;50.36;96885.38;4985872;28;20233;-84
2023/03/25 10:38:01;;;;;;;0.90;0.90;;;;;;;17.62;50.28;96566.16;5010484;28;20214;-84
2023/03/25 10:40:43;;;;;;;0.90;0.90;;;;;;;19.16;50.51;96825.84;5003125;28;20225;-84
2023/03/25 10:43:22;;;;;;;0.90;0.90;;;;;;;19.49;50.46;96889.66;5007658;28;20197;-84
2023/03/25 10:45:50;;;;;;;1.00;1.00;;;;;;;17.02;50.18;96462.75;5019358;28;20217;-84
2023/03/25 10:48:22;;;;;;;0.80;0.80;;;;;;;18.66;50.23;96731.97;5002065;28;20210;-84
2023/03/25 10:50:49;;;;;;;1.00;1.00;;;;;;;19.23;50.26;96847.25;4985025;28;20234;-83
2023/03/25 10:53:23;;;;;;;0.90;0.90;;;;;;;18.82;50.27;96768.88;5022488;28;20645;-84
2023/03/25 10:55:54;;;;;;;0.90;0.90;;;;;;;19.49;50.28;96882.88;5000795;28;20202;-84
2023/03/25 10:58:21;;;;;;;0.80;0.80;;;;;;;19.49;49.82;96882.00;4986336;28;20198;-84
2023/03/25 11:00:47;;;;;;;0.80;0.80;;;;;;;18.27;50.66;96678.22;5000883;28;20284;-84
2023/03/25 11:03:20;;;;;;;0.80;0.80;;;;;;;18.24;50.16;96672.22;4985089;28;20300;-85
2023/03/25 11:05:47;;;;;;;0.90;0.90;;;;;;;18.93;50.36;96813.31;4985030;28;20206;-84
2023/03/25 11:08:14;;;;;;;0.90;0.90;;;;;;;18.69;50.03;96743.91;5001037;28;20202;-84
2023/03/25 11:10:55;;;;;;;1.07;1.00;;;;;;;18.57;50.25;96721.53;5001902;28;20260;-83
2023/03/25 11:13:23;;;;;;;0.70;0.70;;;;;;;18.67;50.38;96740.44;4986709;28;20218;-84
2023/03/25 11:15:52;;;;;;;0.93;0.93;;;;;;;19.49;50.53;96880.34;4999946;28;20221;-84
2023/03/25 11:18:30;;;;;;;0.90;0.90;;;;;;;19.48;50.33;96870.94;5009157;28;20209;-84
2023/03/25 11:21:02;;;;;;;0.80;0.80;;;;;;;19.49;50.26;96872.69;4991817;28;20296;-84
2023/03/25 11:23:50;;;;;;;0.97;0.97;;;;;;;19.49;50.30;96875.22;5000616;28;20233;-84
2023/03/25 11:26:25;;;;;;;0.80;0.80;;;;;;;19.27;50.28;96828.75;5014450;28;20285;-84
2023/03/25 11:28:54;;;;;;;0.80;0.80;;;;;;;17.27;50.25;96477.91;5017417;28;20241;-84
2023/03/25 11:31:22;;;;;;;1.00;1.00;;;;;;;15.92;50.18;96242.94;4999770;28;20289;-84
2023/03/25 11:34:10;;;;;;;1.63;0.90;;;;;;;19.48;50.26;96870.94;4993570;28;20237;-84
2023/03/25 11:36:39;;;;;;;0.73;0.73;;;;;;;19.49;50.25;96866.72;5018113;28;20687;-84
2023/03/25 11:39:31;;;;;;;0.90;0.90;;;;;;;19.49;50.46;96872.69;4997077;28;20290;-84
2023/03/25 11:41:58;;;;;;;0.90;0.90;;;;;;;19.45;50.33;96859.81;5009034;28;20266;-85
2023/03/25 11:44:27;;;;;;;0.80;0.80;;;;;;;18.99;50.33;96783.81;5016907;28;20234;-84
2023/03/25 11:46:56;;;;;;;0.90;0.90;;;;;;;19.49;50.35;96882.88;4992282;28;20292;-84
2023/03/25 11:49:23;;;;;;;0.80;0.80;;;;;;;18.05;50.28;96614.00;4985748;28;20222;-84
2023/03/25 11:51:50;;;;;;;0.80;0.80;;;;;;;19.15;50.20;96802.88;5002507;28;20592;-84